首页
METAR-TAF:

METAR-TAF

机场 :

Pottstown Limerick Airport

Pottstown, 宾夕法尼亚州, 美国

纬度: 40-14-18N, 经度: 075-33-26W, 海拔: 89米

当前天气观测

该预报发布于44分钟前的07:54 UTC
静风
温度 -4°C
湿度 54%
气压 1037 hPa
能見度: 16.1公里
天空无云

METAR: KPTW 120754Z AUTO 00000KT 10SM CLR M04/M12 A3063 RMK AO2 SLP372 T10391117

时间: 03:38 (08:38 UTC)


TAF: 丢失

超过4000个机场的气象观测和天气预报(METAR&TAF报告)。

可查询的气象台以黄色和红色小点在地图上表示。

将鼠标移到小点上方,可查看气象台名称。

然后点击查看天气观测和预报。

如需切换地图:点击带黑十字的绿色按钮放大地图;点击带横线的绿色按钮缩小地图;或者点击绿色箭头查看邻近地区的地图。


METAR-TAF: